Londyn, Wielka Brytania

17:43 BST dnia 25-październik-2014 (GMT +0100)
Heathrow | Change Station
CLOSE
Current Station
Lotnisko
Location: London,
n.p.m.: 79 ft
Najbliższa stacja pogodowa

Wysokość 79 ft 51.48 °N, 0.46 °W | Updated 23 minutes ago

Partly Cloudy
niewielkie zachmurzenie
57 ° F
Odczuwalna 57 ° F
Płn.
13
Wiatr zmienny Wiatr od PdZd

Dziś
Wysoka -- | Niska -- ° F
--% Prawdop. opadów
Wczoraj
Wysoka -- | Niska -- ° F
Precip. -- cali
7:42 AM 5:48 PM
Powiększający się sierp Księżyca, 3% visible
Ciśnienie 30.09 cali
Widzialność 6.2 mil
chmury Niewiele 4500 ft
Punkt rosy 46 ° F
Wilgotność 67%
Opady deszczu 0.00 cali
grubość pokrywy śnieżnej Niedostępne.
UV 0 z 12
Pyłki Niedostępne.
Jakość powietrza Niedostępne.
Flu Activity Niedostępne.
METAR EGLL 251620Z 23011KT 9999 FEW045 14/08 Q1019 NOSIG

More Conditions Fewer Conditions

Ciśnienie 30.09 cali
Widzialność 6.2 mil
chmury Niewiele 4500 ft
Punkt rosy 46 ° F
Wilgotność 67%
Opady deszczu 0.00 cali
grubość pokrywy śnieżnej Niedostępne.
UV 0 z 12
Pyłki Niedostępne.
Jakość powietrza Niedostępne.
Flu Activity Niedostępne.
METAR EGLL 251620Z 23011KT 9999 FEW045 14/08 Q1019 NOSIG

More Conditions Fewer Conditions

10-Day Weather Forecast

Almanac

Astronomia

Oct. 25, 2014 Wschód Zachów
Aktualny czas 07:42 BST 17:48 BST
Zmierzch cywilny 07:08 BST 18:22 BST
Zmierzch żeglarski 06:29 BST 19:01 BST
świt/zmierzch astronomiczny 05:50 BST 19:40 BST
Księżyc 09:14 BST 18:50 BST
całkowite oświetlenie 11h 14m
Długość dnia
10h 05m
Tomorrow will be 3m 43s shorter.
Powiększający się sierp Księżyca, 3% of the Moon is Illuminated
Dziś
Powiększający się sierp Księżyca
Październik 30
Pierwsza kwadra
Listopad 6
Pełnia Księżyca
Listopad 14
Ostatnia kwadra
Listopad 22
Nowy

Dzisiejsze ekstrema

Country Highs Country Lows

Community

WunderPhotos

Upload Photos

1,764,901 zdjęcia zostały przesłane!

Nearby

Jakość powietrza

Not available.

Głębokość pokrywy śnieżnej

Not available.

Aktywność sejsmiczna

Miejscowość Distance Mag. Time & Date
No recent earthquake activity has been reported nearby.
Minimum magnitude displayed is 2.5.

Temperatury wody na wybrzeżu

Miejsce Temperatura
Nie znaleziono stacji

Najbliższa stacja pogodowa